Oshkosh, WI (54901)

12:33 PM CDT on August 18, 2017 (GMT -0500)
Millers Bay neighborhood | | Change Station

Elev 764 ft 44.03 °N, 88.52 °W | Updated 24 seconds ago

Overcast
Overcast
71.1 °F
Feels Like 74 °F
N
3.0
Wind Variable Wind from West

Today
High -- | Low -- °F
--% Chance of Precip.
Yesterday
High -- | Low -- °F
Precip. -- in
Pressure 29.79 in
Visibility 10.0 miles
Clouds Overcast 2700 ft
Heat Index 74 °F
Dew Point 61 °F
Humidity 71%
Rainfall 0.00 in
Snow Depth Not available.
6:01 AM 7:53 PM
Waning Crescent, 12% visible
METAR KOSH 181653Z 30011KT 10SM OVC027 20/15 A2981 RMK AO2 SLP087 T02000150
Pressure 29.79 in
Visibility 10.0 miles
Clouds Overcast 2700 ft
Heat Index 74 °F
Dew Point 61 °F
Humidity 71%
Rainfall 0.00 in
Snow Depth Not available.
6:01 AM 7:53 PM
Waning Crescent, 12% visible
METAR KOSH 181653Z 30011KT 10SM OVC027 20/15 A2981 RMK AO2 SLP087 T02000150

Get Severe Weather Alerts

Thanks for signing up!

Be on the lookout for a verification email in your inbox.

You'll start receiving the daily forecast at 6 AM.

×

10-Day Weather Forecast

Almanac

Astronomy

Aug. 18, 2017 Rise Set
Actual Time
Civil Twilight
Nautical Twilight
Astronomical Twilight
Moon
Length of Visible Light
Length of Day
Tomorrow will be .
, % of the Moon is Illuminated

Today's Extremes

State Highs State Lows

Community

WunderPhotos

Category 6

Welcome to Category 6. This is the collective home for Weather Underground's featured writeups by Dr. Jeff Masters (right), Bob Henson (left), Chris Burt, and other regular contributors.

Nearby

Air Quality

  Air Quality AQ Index Pollutant
Not available.

Snow Depth

Station Depth Elevation

Earthquake Activity

City Distance Mag. Time & Date
Minimum magnitude displayed is 2.5.

Coastal Water Temperatures

Place Temperature

Stations

Nearby Weather Stations

Station Location Temp. Windchill Dew Point Humidity Wind Precip. Elev Updated Type
                   

Watches & Warnings

There are currently no watches in effect.